Terminal Aerodrome Forecast
Issued by NWS Lake Charles, LA

Home | Current Version | Previous Version | Text Only | Print | Product List | Glossary On
Versions: 1 2 3 4 5 6 7 8 9 10 11 12 13 14 15 16 17 18 19 20 21 22 23 24 25
000
FTUS44 KLCH 190826 AAB
TAFBPT
TAF AMD
KBPT 190826Z 1908/2006 36006KT P6SM SCT018
     FM191100 22004KT 6SM BR SCT012
     FM191400 22010KT P6SM BKN023
     FM191700 22012KT P6SM SCT023 BKN040
     FM192300 22008KT P6SM SCT040 SCT090=

USA.gov is the U.S. government's official web portal to all federal, state and local government web resources and services.